createdAt,value
2019-05-03T00:02:28.458Z,17.12
2019-05-03T00:05:22.549Z,17.63
2019-05-03T00:07:56.520Z,17.30
2019-05-03T00:10:27.761Z,17.10
2019-05-03T00:12:59.205Z,16.30
2019-05-03T00:15:52.663Z,17.40
2019-05-03T00:18:23.439Z,16.83
2019-05-03T00:20:54.656Z,15.77
2019-05-03T00:23:26.003Z,16.40
2019-05-03T00:25:57.425Z,16.10
2019-05-03T00:28:28.058Z,15.40
2019-05-03T00:30:59.398Z,15.33
2019-05-03T00:33:31.792Z,15.63
2019-05-03T00:36:22.158Z,14.70
2019-05-03T00:38:55.364Z,15.03
2019-05-03T00:41:29.508Z,13.17
2019-05-03T00:44:04.664Z,14.00
2019-05-03T00:46:36.241Z,14.70
2019-05-03T00:49:07.255Z,13.38
2019-05-03T00:51:38.511Z,13.47
2019-05-03T00:54:09.718Z,11.97
2019-05-03T00:56:44.130Z,13.07
2019-05-03T00:59:14.063Z,12.37
2019-05-03T01:01:44.975Z,13.27
2019-05-03T01:04:16.101Z,11.48
2019-05-03T01:06:46.670Z,11.20
2019-05-03T01:09:22.422Z,10.77
2019-05-03T01:11:53.244Z,10.27
2019-05-03T01:14:24.149Z,10.07
2019-05-03T01:16:54.981Z,9.40
2019-05-03T01:19:26.011Z,9.60
2019-05-03T01:21:56.975Z,9.50
2019-05-03T01:24:28.568Z,9.63
2019-05-03T01:26:59.495Z,8.83
2019-05-03T01:29:32.292Z,8.90
2019-05-03T01:32:04.633Z,7.87
2019-05-03T01:34:35.796Z,9.20
2019-05-03T01:37:06.539Z,8.50
2019-05-03T01:39:37.471Z,8.50
2019-05-03T01:42:08.023Z,8.00
2019-05-03T01:44:39.001Z,7.30
2019-05-03T01:47:14.064Z,7.20
2019-05-03T01:50:03.884Z,7.30
2019-05-03T01:52:37.681Z,6.60
2019-05-03T01:55:13.156Z,6.17
2019-05-03T01:57:43.886Z,6.90
2019-05-03T02:00:19.338Z,7.08
2019-05-03T02:02:57.816Z,6.53
2019-05-03T02:05:46.316Z,6.57
2019-05-03T02:08:17.691Z,6.40
2019-05-03T02:10:48.735Z,6.20
2019-05-03T02:13:19.956Z,5.80
2019-05-03T02:15:52.773Z,5.20
2019-05-03T02:18:23.438Z,5.67
2019-05-03T02:20:56.663Z,4.80
2019-05-03T02:23:27.375Z,5.08
2019-05-03T02:25:59.272Z,4.77
2019-05-03T02:28:32.548Z,4.97
2019-05-03T02:31:03.754Z,4.50
2019-05-03T02:33:34.765Z,5.17
2019-05-03T02:36:05.640Z,4.80
2019-05-03T02:38:36.544Z,4.40
2019-05-03T02:41:08.399Z,4.47
2019-05-03T02:43:45.577Z,5.10
2019-05-03T02:46:36.074Z,4.80
2019-05-03T02:49:26.131Z,4.20
2019-05-03T02:51:56.776Z,4.43
2019-05-03T02:54:28.094Z,4.50
2019-05-03T02:56:59.047Z,4.07
2019-05-03T02:59:30.266Z,4.65
2019-05-03T03:02:01.393Z,4.75
2019-05-03T03:04:35.134Z,4.43
2019-05-03T03:07:06.325Z,6.00
2019-05-03T03:09:37.632Z,4.27
2019-05-03T03:12:09.172Z,4.60
2019-05-03T03:14:41.572Z,4.80
2019-05-03T03:17:14.941Z,5.57
2019-05-03T03:19:49.093Z,4.30
2019-05-03T03:22:25.819Z,4.47
2019-05-03T03:24:59.104Z,4.80
2019-05-03T03:27:36.083Z,4.23
2019-05-03T03:30:28.976Z,4.90
2019-05-03T03:33:02.109Z,4.43
2019-05-03T03:35:38.342Z,4.40
2019-05-03T03:38:08.927Z,4.03
2019-05-03T03:40:45.327Z,4.50
2019-05-03T03:43:20.447Z,4.37
2019-05-03T03:45:52.234Z,4.70
2019-05-03T03:48:28.871Z,4.60
2019-05-03T03:51:01.452Z,6.93
2019-05-03T03:53:37.735Z,4.70
2019-05-03T03:56:10.860Z,5.75
2019-05-03T03:58:46.173Z,5.10
2019-05-03T04:01:16.390Z,5.25
2019-05-03T04:03:47.683Z,5.13
2019-05-03T04:06:18.571Z,4.40
2019-05-03T04:08:49.861Z,4.65
2019-05-03T04:11:22.980Z,4.62
2019-05-03T04:13:55.925Z,4.77
2019-05-03T04:16:58.125Z,4.10
2019-05-03T04:19:32.370Z,4.25
2019-05-03T04:22:05.918Z,4.22
2019-05-03T04:24:37.708Z,4.50
2019-05-03T04:27:18.692Z,4.20
2019-05-03T04:29:41.273Z,4.27
2019-05-03T04:32:15.404Z,4.67
2019-05-03T04:34:46.851Z,6.20
2019-05-03T04:37:17.872Z,5.70
2019-05-03T04:39:49.111Z,4.20
2019-05-03T04:42:19.901Z,4.20
2019-05-03T04:44:52.230Z,3.70
2019-05-03T04:47:25.610Z,4.10
2019-05-03T04:49:55.604Z,4.00
2019-05-03T04:52:27.203Z,4.27
2019-05-03T04:55:02.790Z,4.70
2019-05-03T04:57:40.681Z,4.40
2019-05-03T05:00:11.223Z,4.00
2019-05-03T05:02:45.589Z,4.37
2019-05-03T05:05:15.658Z,5.17
2019-05-03T05:07:46.503Z,4.63
2019-05-03T05:10:17.677Z,4.90
2019-05-03T05:12:55.170Z,4.73
2019-05-03T05:15:26.458Z,5.40
2019-05-03T05:18:05.739Z,4.67
2019-05-03T05:20:55.527Z,4.57
2019-05-03T05:23:27.583Z,4.40
2019-05-03T05:26:09.421Z,4.80
2019-05-03T05:28:51.073Z,4.40
2019-05-03T05:31:23.079Z,4.70
2019-05-03T05:33:54.586Z,4.17
2019-05-03T05:36:25.649Z,4.60
2019-05-03T05:38:56.250Z,4.57
2019-05-03T05:41:27.394Z,4.60
2019-05-03T05:43:58.513Z,4.70
2019-05-03T05:46:35.143Z,4.30
2019-05-03T05:49:08.583Z,4.47
2019-05-03T05:51:39.562Z,4.40
2019-05-03T05:54:10.719Z,4.58
2019-05-03T05:57:08.460Z,4.20
2019-05-03T06:00:06.012Z,3.87
2019-05-03T06:02:36.934Z,4.00
2019-05-03T06:05:07.690Z,3.90
2019-05-03T06:07:59.912Z,3.50
2019-05-03T06:10:45.368Z,3.43
2019-05-03T06:13:35.123Z,3.70
2019-05-03T06:16:18.532Z,3.57
2019-05-03T06:19:17.567Z,3.70
2019-05-03T06:21:56.108Z,3.70
2019-05-03T06:24:32.265Z,3.80
2019-05-03T06:27:20.447Z,3.93
2019-05-03T06:29:54.514Z,4.23
2019-05-03T06:32:30.683Z,3.77
2019-05-03T06:35:01.445Z,4.30
2019-05-03T06:37:37.086Z,4.08
2019-05-03T06:40:08.118Z,4.83
2019-05-03T06:42:51.584Z,3.80
2019-05-03T06:45:12.498Z,4.37
2019-05-03T06:47:48.412Z,4.90
2019-05-03T06:50:27.226Z,4.10
2019-05-03T06:52:54.784Z,4.43
2019-05-03T06:55:26.304Z,4.33
2019-05-03T06:57:57.740Z,4.60
2019-05-03T07:00:59.701Z,4.33
2019-05-03T07:03:38.684Z,4.40
2019-05-03T07:06:33.270Z,4.27
2019-05-03T07:09:05.707Z,4.20
2019-05-03T07:11:36.843Z,4.62
2019-05-03T07:14:07.861Z,4.97
2019-05-03T07:16:38.786Z,4.70
2019-05-03T07:19:09.875Z,5.20
2019-05-03T07:21:40.837Z,4.80
2019-05-03T07:24:11.993Z,5.40
2019-05-03T07:26:44.678Z,5.70
2019-05-03T07:29:15.916Z,5.50
2019-05-03T07:31:46.501Z,5.97
2019-05-03T07:34:19.304Z,6.17
2019-05-03T07:36:52.962Z,6.03
2019-05-03T07:39:25.694Z,6.00
2019-05-03T07:41:57.935Z,6.10
2019-05-03T07:44:30.066Z,5.97
2019-05-03T07:47:04.791Z,7.27
2019-05-03T07:49:36.600Z,6.80
2019-05-03T07:52:08.383Z,7.47
2019-05-03T07:54:39.783Z,7.55
2019-05-03T07:57:35.692Z,7.60
2019-05-03T08:00:08.545Z,8.05
2019-05-03T08:02:40.183Z,8.23
2019-05-03T08:05:11.204Z,8.17
2019-05-03T08:07:47.434Z,9.10
2019-05-03T08:10:18.515Z,8.83
2019-05-03T08:12:49.672Z,8.93
2019-05-03T08:15:20.730Z,8.90
2019-05-03T08:17:52.435Z,8.90
2019-05-03T08:20:24.840Z,8.90
2019-05-03T08:22:56.182Z,9.30
2019-05-03T08:25:27.254Z,9.13
2019-05-03T08:27:57.985Z,9.87
2019-05-03T08:30:37.344Z,10.40
2019-05-03T08:33:16.493Z,10.38
2019-05-03T08:35:48.938Z,10.73
2019-05-03T08:38:22.203Z,11.30
2019-05-03T08:40:57.075Z,12.40
2019-05-03T08:43:28.522Z,13.95
2019-05-03T08:46:00.025Z,13.63
2019-05-03T08:48:31.601Z,14.40
2019-05-03T08:51:04.598Z,15.37
2019-05-03T08:53:36.099Z,16.47
2019-05-03T08:56:07.584Z,16.65
2019-05-03T08:58:39.138Z,17.30
2019-05-03T09:01:10.632Z,17.20
2019-05-03T09:03:41.741Z,17.30
2019-05-03T09:06:15.471Z,16.67
2019-05-03T09:08:46.301Z,16.87
2019-05-03T09:11:30.837Z,17.20
2019-05-03T09:14:02.214Z,16.43
2019-05-03T09:16:35.440Z,17.00
2019-05-03T09:19:06.144Z,17.17
2019-05-03T09:21:38.188Z,17.40
2019-05-03T09:24:09.112Z,17.37
2019-05-03T09:26:40.477Z,17.10
2019-05-03T09:29:11.393Z,17.83
2019-05-03T09:31:44.567Z,18.25
2019-05-03T09:34:15.140Z,17.60
2019-05-03T09:36:50.332Z,17.90
2019-05-03T09:39:24.347Z,17.70
2019-05-03T09:41:55.448Z,17.90
2019-05-03T09:44:26.652Z,17.40
2019-05-03T09:47:07.602Z,17.70
2019-05-03T09:49:46.330Z,17.70
2019-05-03T09:52:19.853Z,18.17
2019-05-03T09:54:56.337Z,17.10
2019-05-03T09:57:28.509Z,16.80
2019-05-03T10:00:00.263Z,17.02
2019-05-03T10:02:31.265Z,17.13
2019-05-03T10:05:02.399Z,17.07
2019-05-03T10:07:35.078Z,16.67
2019-05-03T10:10:11.045Z,17.17
2019-05-03T10:12:42.867Z,18.20
2019-05-03T10:15:21.524Z,17.40
2019-05-03T10:17:59.920Z,16.83
2019-05-03T10:20:44.509Z,17.13
2019-05-03T10:23:45.201Z,16.80
2019-05-03T10:26:17.381Z,14.60
2019-05-03T10:28:49.853Z,14.10
2019-05-03T10:31:26.961Z,13.10
2019-05-03T10:34:01.764Z,14.73
2019-05-03T10:36:33.010Z,14.33
2019-05-03T10:39:06.996Z,14.03
2019-05-03T10:41:38.527Z,15.20
2019-05-03T10:44:09.924Z,14.77
2019-05-03T10:46:41.431Z,14.30
2019-05-03T10:49:15.134Z,15.05
2019-05-03T10:51:50.786Z,14.83
2019-05-03T10:54:29.372Z,14.33
2019-05-03T10:57:20.499Z,14.33
2019-05-03T10:59:53.173Z,13.60
2019-05-03T11:02:47.382Z,13.87
2019-05-03T11:05:19.466Z,12.47
2019-05-03T11:07:50.602Z,12.68
2019-05-03T11:10:21.709Z,26.57
2019-05-03T11:12:54.745Z,12.20
2019-05-03T11:15:26.058Z,11.35
2019-05-03T11:17:58.349Z,12.90
2019-05-03T11:20:35.266Z,12.87
2019-05-03T11:23:07.401Z,12.88
2019-05-03T11:25:38.783Z,13.83
2019-05-03T11:28:24.938Z,16.77
2019-05-03T11:31:02.184Z,14.47
2019-05-03T11:33:37.275Z,13.57
2019-05-03T11:36:27.963Z,14.90
2019-05-03T11:38:59.315Z,15.53
2019-05-03T11:41:32.842Z,15.07
2019-05-03T11:44:21.321Z,14.83
2019-05-03T11:46:54.967Z,17.43
2019-05-03T11:49:26.388Z,18.20
2019-05-03T11:51:57.402Z,19.17
2019-05-03T11:54:28.623Z,18.97
2019-05-03T11:57:01.720Z,17.47
2019-05-03T11:59:34.414Z,17.25
2019-05-03T12:02:24.675Z,16.10
2019-05-03T12:04:55.480Z,17.00
2019-05-03T12:07:39.650Z,17.93
2019-05-03T12:10:16.140Z,17.53
2019-05-03T12:12:40.808Z,17.33
2019-05-03T12:15:11.934Z,17.87
2019-05-03T12:17:54.458Z,16.37
2019-05-03T12:20:21.036Z,14.93
2019-05-03T12:22:52.910Z,15.67
2019-05-03T12:25:26.086Z,14.20
2019-05-03T12:27:56.370Z,14.87
2019-05-03T12:30:27.852Z,12.90
2019-05-03T12:32:58.613Z,12.57
2019-05-03T12:35:29.540Z,10.60
2019-05-03T12:38:01.036Z,9.60
2019-05-03T12:40:31.905Z,9.00
2019-05-03T12:43:05.731Z,10.47
2019-05-03T12:45:36.288Z,11.07
2019-05-03T12:48:07.221Z,11.47
2019-05-03T12:50:38.568Z,12.70
2019-05-03T12:53:17.476Z,11.97
2019-05-03T12:55:58.971Z,11.90
2019-05-03T12:59:02.248Z,11.63
2019-05-03T13:02:04.875Z,11.30
2019-05-03T13:04:37.641Z,11.33
2019-05-03T13:10:45.533Z,15.67
2019-05-03T13:13:16.852Z,14.40
2019-05-03T13:15:48.067Z,15.47
2019-05-03T13:18:19.102Z,16.80
2019-05-03T13:20:50.130Z,19.20
2019-05-03T13:23:22.361Z,17.70
2019-05-03T13:25:54.174Z,17.23
2019-05-03T13:28:25.523Z,17.77
2019-05-03T13:30:56.407Z,17.97
2019-05-03T13:33:27.299Z,18.13
2019-05-03T13:35:58.194Z,17.93
2019-05-03T13:38:29.716Z,17.63
2019-05-03T13:41:01.090Z,15.73
2019-05-03T13:43:32.090Z,16.00
2019-05-03T13:46:05.601Z,14.90
2019-05-03T13:48:44.895Z,14.77
2019-05-03T13:51:09.424Z,13.40
2019-05-03T13:53:40.667Z,13.53
2019-05-03T13:56:18.922Z,14.90
2019-05-03T13:58:56.140Z,14.47
2019-05-03T14:01:29.530Z,14.57
2019-05-03T14:04:00.455Z,14.33
2019-05-03T14:06:33.669Z,14.93
2019-05-03T14:09:05.182Z,13.35
2019-05-03T14:11:36.334Z,10.15
2019-05-03T14:14:07.244Z,9.27
2019-05-03T14:16:38.251Z,8.93
2019-05-03T14:19:14.764Z,8.25
2019-05-03T14:21:50.363Z,8.47
2019-05-03T14:24:21.219Z,8.40
2019-05-03T14:26:52.124Z,8.13
2019-05-03T14:29:25.262Z,7.83
2019-05-03T14:31:57.657Z,7.70
2019-05-03T14:34:28.894Z,8.13
2019-05-03T14:36:59.943Z,7.35
2019-05-03T14:39:33.422Z,7.37
2019-05-03T14:42:12.732Z,6.70
2019-05-03T14:45:00.305Z,7.30
2019-05-03T14:47:33.607Z,7.17
2019-05-03T14:50:05.515Z,6.90
2019-05-03T14:52:36.600Z,7.57
2019-05-03T14:55:14.678Z,8.10
2019-05-03T14:57:55.280Z,8.23
2019-05-03T15:00:45.184Z,8.10
2019-05-03T15:03:19.481Z,7.93
2019-05-03T15:05:50.419Z,9.40
2019-05-03T15:08:21.459Z,9.37
2019-05-03T15:10:54.353Z,9.78
2019-05-03T15:13:25.615Z,9.43
2019-05-03T20:34:50.643Z,16.90
2019-05-03T20:37:21.589Z,17.60
2019-05-03T20:39:54.449Z,17.13
2019-05-03T20:42:44.769Z,17.50
2019-05-03T20:45:21.096Z,13.27
2019-05-03T20:47:55.358Z,13.30
2019-05-03T20:50:27.175Z,16.45
2019-05-03T20:53:01.540Z,17.33
2019-05-03T20:55:34.595Z,16.87
2019-05-03T20:58:08.270Z,16.13
2019-05-03T21:00:38.511Z,17.60
2019-05-03T21:03:09.548Z,18.43
2019-05-03T21:05:41.281Z,18.07
2019-05-03T21:08:12.198Z,15.20
2019-05-03T21:10:45.833Z,16.93
2019-05-03T21:13:17.012Z,15.03
2019-05-03T21:16:06.770Z,16.23
2019-05-03T21:18:52.686Z,16.70
2019-05-03T21:21:35.131Z,15.13
2019-05-03T21:24:11.142Z,15.93
2019-05-03T21:26:45.154Z,13.73
2019-05-03T21:29:16.406Z,17.07
2019-05-03T21:31:48.101Z,13.80
2019-05-03T21:34:19.128Z,17.70
2019-05-03T21:36:51.514Z,17.07
2019-05-03T21:39:24.504Z,15.95
2019-05-03T21:41:55.531Z,14.90
2019-05-03T21:44:34.135Z,16.12
2019-05-03T21:47:15.186Z,17.23
2019-05-03T21:49:46.568Z,20.37
2019-05-03T21:52:18.225Z,17.35
2019-05-03T21:54:51.455Z,21.00
2019-05-03T21:57:25.156Z,16.80
2019-05-03T21:59:56.029Z,15.70
2019-05-03T22:02:28.644Z,17.67
2019-05-03T22:04:59.923Z,14.77
2019-05-03T22:07:30.867Z,18.87
2019-05-03T22:10:02.066Z,16.03
2019-05-03T22:12:33.439Z,17.67
2019-05-03T22:15:22.484Z,21.57
2019-05-03T22:18:18.415Z,21.97
2019-05-03T22:21:00.408Z,19.53
2019-05-03T22:23:56.396Z,21.10
2019-05-03T22:26:45.393Z,19.60
2019-05-03T22:29:17.182Z,21.68
2019-05-03T22:31:48.752Z,25.10
2019-05-03T22:34:19.794Z,16.05
2019-05-03T22:36:50.489Z,16.93
2019-05-03T22:39:21.487Z,17.27
2019-05-03T22:41:52.409Z,18.62
2019-05-03T22:44:25.100Z,18.80
2019-05-03T22:46:55.693Z,18.37
2019-05-03T22:49:27.302Z,15.93
2019-05-03T22:51:58.127Z,18.87
2019-05-03T22:54:28.851Z,18.50
2019-05-03T22:57:00.515Z,20.63
2019-05-03T22:59:31.858Z,17.37
2019-05-03T23:02:02.437Z,18.20
2019-05-03T23:04:35.463Z,17.27
2019-05-03T23:07:06.879Z,17.10
2019-05-03T23:09:37.792Z,15.67
2019-05-03T23:12:09.112Z,16.87
2019-05-03T23:14:42.103Z,17.57
2019-05-03T23:17:15.003Z,17.80
2019-05-03T23:19:48.880Z,20.00
2019-05-03T23:22:28.952Z,21.07
2019-05-03T23:25:00.010Z,14.80
2019-05-03T23:27:31.062Z,14.25
2019-05-03T23:30:05.898Z,14.53
2019-05-03T23:32:36.780Z,16.40
2019-05-03T23:35:08.212Z,16.82
2019-05-03T23:37:39.343Z,16.87
2019-05-03T23:40:10.464Z,16.73
2019-05-03T23:42:41.777Z,15.50
2019-05-03T23:45:14.796Z,14.80
2019-05-03T23:47:47.582Z,14.83
2019-05-03T23:50:19.976Z,15.40
2019-05-03T23:52:51.575Z,15.50
2019-05-03T23:55:36.442Z,17.23
2019-05-03T23:58:08.947Z,15.25
